sensor_id;sensor_type;location;lat;lon;timestamp;pressure;altitude;pressure_sealevel;temperature;humidity
11487;BME280;10510;47.942;9.442;2023-04-07T00:01:07;94611.38;;;4.17;100.00
11487;BME280;10510;47.942;9.442;2023-04-07T00:03:07;94616.72;;;4.15;100.00
11487;BME280;10510;47.942;9.442;2023-04-07T00:05:08;94603.59;;;4.17;100.00
11487;BME280;10510;47.942;9.442;2023-04-07T00:07:08;94602.81;;;4.16;100.00
11487;BME280;10510;47.942;9.442;2023-04-07T00:09:09;94605.38;;;4.16;100.00
11487;BME280;10510;47.942;9.442;2023-04-07T00:11:12;94602.00;;;4.16;100.00
11487;BME280;10510;47.942;9.442;2023-04-07T00:13:12;94595.72;;;4.18;100.00
11487;BME280;10510;47.942;9.442;2023-04-07T00:15:13;94589.75;;;4.18;100.00
11487;BME280;10510;47.942;9.442;2023-04-07T00:17:13;94589.75;;;4.18;100.00
11487;BME280;10510;47.942;9.442;2023-04-07T00:19:13;94587.16;;;4.18;100.00
11487;BME280;10510;47.942;9.442;2023-04-07T00:21:13;94592.44;;;4.16;100.00
11487;BME280;10510;47.942;9.442;2023-04-07T00:23:14;94580.50;;;4.15;100.00
11487;BME280;10510;47.942;9.442;2023-04-07T00:25:14;94590.84;;;4.15;100.00
11487;BME280;10510;47.942;9.442;2023-04-07T00:27:15;94582.41;;;4.13;100.00
11487;BME280;10510;47.942;9.442;2023-04-07T00:29:15;94580.78;;;4.12;100.00
11487;BME280;10510;47.942;9.442;2023-04-07T00:31:15;94579.94;;;4.12;100.00
11487;BME280;10510;47.942;9.442;2023-04-07T00:33:16;94580.91;;;4.10;100.00
11487;BME280;10510;47.942;9.442;2023-04-07T00:35:16;94577.50;;;4.10;100.00
11487;BME280;10510;47.942;9.442;2023-04-07T00:37:16;94570.56;;;4.10;100.00
11487;BME280;10510;47.942;9.442;2023-04-07T00:39:18;94573.97;;;4.11;100.00
11487;BME280;10510;47.942;9.442;2023-04-07T00:41:19;94567.97;;;4.10;100.00
11487;BME280;10510;47.942;9.442;2023-04-07T00:43:19;94559.53;;;4.08;100.00
11487;BME280;10510;47.942;9.442;2023-04-07T00:45:19;94562.97;;;4.09;100.00
11487;BME280;10510;47.942;9.442;2023-04-07T00:47:20;94550.84;;;4.09;100.00
11487;BME280;10510;47.942;9.442;2023-04-07T00:49:20;94548.25;;;4.09;100.00
11487;BME280;10510;47.942;9.442;2023-04-07T00:51:21;94545.00;;;4.07;100.00
11487;BME280;10510;47.942;9.442;2023-04-07T00:53:21;94549.19;;;4.08;100.00
11487;BME280;10510;47.942;9.442;2023-04-07T00:55:22;94545.97;;;4.06;100.00
11487;BME280;10510;47.942;9.442;2023-04-07T00:57:23;94542.41;;;4.07;100.00
11487;BME280;10510;47.942;9.442;2023-04-07T00:59:24;94533.03;;;4.06;100.00
11487;BME280;10510;47.942;9.442;2023-04-07T01:01:27;94532.06;;;4.07;100.00
11487;BME280;10510;47.942;9.442;2023-04-07T01:03:33;94527.56;;;4.09;100.00
11487;BME280;10510;47.942;9.442;2023-04-07T01:06:07;94524.81;;;4.11;100.00
11487;BME280;10510;47.942;9.442;2023-04-07T01:08:14;94521.41;;;4.10;100.00
11487;BME280;10510;47.942;9.442;2023-04-07T01:10:22;94511.06;;;4.10;100.00
11487;BME280;10510;47.942;9.442;2023-04-07T01:15:20;94501.53;;;4.11;100.00
11487;BME280;10510;47.942;9.442;2023-04-07T01:17:22;94499.75;;;4.12;100.00
11487;BME280;10510;47.942;9.442;2023-04-07T01:19:35;94490.38;;;4.10;100.00
11487;BME280;10510;47.942;9.442;2023-04-07T01:21:36;94495.56;;;4.10;100.00
11487;BME280;10510;47.942;9.442;2023-04-07T01:26:03;94489.56;;;4.10;100.00
11487;BME280;10510;47.942;9.442;2023-04-07T01:28:30;94485.50;;;4.07;100.00
11487;BME280;10510;47.942;9.442;2023-04-07T01:30:34;94485.50;;;4.07;100.00
11487;BME280;10510;47.942;9.442;2023-04-07T01:32:39;94487.28;;;4.07;100.00
11487;BME280;10510;47.942;9.442;2023-04-07T01:34:40;94483.88;;;4.06;100.00
11487;BME280;10510;47.942;9.442;2023-04-07T01:36:42;94480.63;;;4.04;100.00
11487;BME280;10510;47.942;9.442;2023-04-07T01:38:44;94479.13;;;4.02;100.00
11487;BME280;10510;47.942;9.442;2023-04-07T01:40:46;94481.72;;;4.02;100.00
11487;BME280;10510;47.942;9.442;2023-04-07T01:42:48;94478.34;;;4.01;100.00
11487;BME280;10510;47.942;9.442;2023-04-07T01:44:49;94482.53;;;4.02;100.00
11487;BME280;10510;47.942;9.442;2023-04-07T01:46:50;94479.31;;;4.00;100.00
11487;BME280;10510;47.942;9.442;2023-04-07T01:48:51;94481.06;;;4.00;100.00
11487;BME280;10510;47.942;9.442;2023-04-07T01:50:52;94478.63;;;3.98;100.00
11487;BME280;10510;47.942;9.442;2023-04-07T01:52:54;94477.00;;;3.97;100.00
11487;BME280;10510;47.942;9.442;2023-04-07T01:54:55;94483.13;;;3.96;100.00
11487;BME280;10510;47.942;9.442;2023-04-07T01:56:56;94475.38;;;3.96;100.00
11487;BME280;10510;47.942;9.442;2023-04-07T01:58:57;94473.59;;;3.97;100.00
11487;BME280;10510;47.942;9.442;2023-04-07T02:00:57;94465.19;;;3.95;100.00
11487;BME280;10510;47.942;9.442;2023-04-07T02:03:00;94474.56;;;3.96;100.00
11487;BME280;10510;47.942;9.442;2023-04-07T02:05:04;94465.19;;;3.95;100.00
11487;BME280;10510;47.942;9.442;2023-04-07T02:07:14;94471.84;;;3.97;100.00
11487;BME280;10510;47.942;9.442;2023-04-07T02:09:19;94465.69;;;3.98;100.00
11487;BME280;10510;47.942;9.442;2023-04-07T02:11:21;94464.09;;;3.97;100.00
11487;BME280;10510;47.942;9.442;2023-04-07T02:13:23;94466.66;;;3.97;100.00
11487;BME280;10510;47.942;9.442;2023-04-07T02:15:24;94466.00;;;3.95;100.00
11487;BME280;10510;47.942;9.442;2023-04-07T02:17:27;94461.78;;;3.94;100.00
11487;BME280;10510;47.942;9.442;2023-04-07T02:19:28;94466.13;;;3.94;100.00
11487;BME280;10510;47.942;9.442;2023-04-07T02:21:29;94467.09;;;3.93;100.00
11487;BME280;10510;47.942;9.442;2023-04-07T02:23:34;94461.13;;;3.92;100.00
11487;BME280;10510;47.942;9.442;2023-04-07T02:25:35;94461.78;;;3.94;100.00
11487;BME280;10510;47.942;9.442;2023-04-07T02:27:37;94456.75;;;3.93;100.00
11487;BME280;10510;47.942;9.442;2023-04-07T02:29:37;94454.03;;;3.94;100.00
11487;BME280;10510;47.942;9.442;2023-04-07T02:31:38;94449.81;;;3.93;100.00
11487;BME280;10510;47.942;9.442;2023-04-07T02:33:38;94443.69;;;3.94;100.00
11487;BME280;10510;47.942;9.442;2023-04-07T02:35:38;94450.47;;;3.95;100.00
11487;BME280;10510;47.942;9.442;2023-04-07T02:37:39;94448.84;;;3.94;100.00
11487;BME280;10510;47.942;9.442;2023-04-07T02:39:39;94447.09;;;3.95;100.00
11487;BME280;10510;47.942;9.442;2023-04-07T02:41:39;94432.38;;;3.95;100.00
11487;BME280;10510;47.942;9.442;2023-04-07T02:43:40;94428.53;;;3.99;100.00
11487;BME280;10510;47.942;9.442;2023-04-07T02:45:40;94425.81;;;4.01;100.00
11487;BME280;10510;47.942;9.442;2023-04-07T02:47:40;94429.03;;;4.03;100.00
11487;BME280;10510;47.942;9.442;2023-04-07T02:49:41;94423.06;;;4.02;100.00
11487;BME280;10510;47.942;9.442;2023-04-07T02:51:41;94421.28;;;4.03;100.00
11487;BME280;10510;47.942;9.442;2023-04-07T02:53:41;94422.91;;;4.04;100.00
11487;BME280;10510;47.942;9.442;2023-04-07T02:55:41;94415.97;;;4.04;100.00
11487;BME280;10510;47.942;9.442;2023-04-07T02:57:42;94422.63;;;4.07;100.00
11487;BME280;10510;47.942;9.442;2023-04-07T02:59:42;94420.84;;;4.07;100.00
11487;BME280;10510;47.942;9.442;2023-04-07T03:01:42;94418.13;;;4.09;100.00
11487;BME280;10510;47.942;9.442;2023-04-07T03:03:43;94415.38;;;4.10;100.00
11487;BME280;10510;47.942;9.442;2023-04-07T03:05:43;94414.41;;;4.12;100.00
11487;BME280;10510;47.942;9.442;2023-04-07T03:07:44;94410.88;;;4.13;100.00
11487;BME280;10510;47.942;9.442;2023-04-07T03:09:44;94410.88;;;4.13;100.00
11487;BME280;10510;47.942;9.442;2023-04-07T03:11:45;94408.28;;;4.13;100.00
11487;BME280;10510;47.942;9.442;2023-04-07T03:13:45;94402.31;;;4.12;100.00
11487;BME280;10510;47.942;9.442;2023-04-07T03:15:46;94408.91;;;4.15;100.00
11487;BME280;10510;47.942;9.442;2023-04-07T03:17:46;94403.75;;;4.15;100.00
11487;BME280;10510;47.942;9.442;2023-04-07T03:19:46;94400.22;;;4.16;100.00
11487;BME280;10510;47.942;9.442;2023-04-07T03:21:47;94401.84;;;4.17;100.00
11487;BME280;10510;47.942;9.442;2023-04-07T03:23:47;94393.25;;;4.16;100.00
11487;BME280;10510;47.942;9.442;2023-04-07T03:25:47;94392.28;;;4.17;100.00
11487;BME280;10510;47.942;9.442;2023-04-07T03:27:47;94391.50;;;4.17;100.00
11487;BME280;10510;47.942;9.442;2023-04-07T03:29:48;94389.88;;;4.16;100.00
11487;BME280;10510;47.942;9.442;2023-04-07T03:31:50;94388.22;;;4.15;100.00
11487;BME280;10510;47.942;9.442;2023-04-07T03:33:50;94389.19;;;4.14;100.00
11487;BME280;10510;47.942;9.442;2023-04-07T03:35:50;94389.19;;;4.14;100.00
11487;BME280;10510;47.942;9.442;2023-04-07T03:37:51;94380.63;;;4.13;100.00
11487;BME280;10510;47.942;9.442;2023-04-07T03:39:51;94383.34;;;4.12;100.00
11487;BME280;10510;47.942;9.442;2023-04-07T03:41:51;94384.19;;;4.12;100.00
11487;BME280;10510;47.942;9.442;2023-04-07T03:43:51;94375.59;;;4.12;100.00
11487;BME280;10510;47.942;9.442;2023-04-07T03:45:52;94379.16;;;4.10;100.00
11487;BME280;10510;47.942;9.442;2023-04-07T03:47:53;94385.31;;;4.09;100.00
11487;BME280;10510;47.942;9.442;2023-04-07T03:49:53;94381.06;;;4.08;100.00
11487;BME280;10510;47.942;9.442;2023-04-07T03:51:53;94387.09;;;4.09;100.00
11487;BME280;10510;47.942;9.442;2023-04-07T03:53:53;94378.66;;;4.07;100.00
11487;BME280;10510;47.942;9.442;2023-04-07T03:55:54;94386.41;;;4.07;100.00
11487;BME280;10510;47.942;9.442;2023-04-07T03:57:54;94383.16;;;4.05;100.00
11487;BME280;10510;47.942;9.442;2023-04-07T03:59:55;94372.00;;;4.04;100.00
11487;BME280;10510;47.942;9.442;2023-04-07T04:01:55;94369.53;;;4.03;100.00
11487;BME280;10510;47.942;9.442;2023-04-07T04:03:56;94373.91;;;4.02;100.00
11487;BME280;10510;47.942;9.442;2023-04-07T04:05:56;94367.94;;;4.02;100.00
11487;BME280;10510;47.942;9.442;2023-04-07T04:07:56;94360.34;;;4.00;100.00
11487;BME280;10510;47.942;9.442;2023-04-07T04:09:56;94365.50;;;4.00;100.00
11487;BME280;10510;47.942;9.442;2023-04-07T04:11:57;94357.09;;;3.98;100.00
11487;BME280;10510;47.942;9.442;2023-04-07T04:13:57;94363.22;;;3.97;100.00
11487;BME280;10510;47.942;9.442;2023-04-07T04:15:57;94354.63;;;3.97;100.00
11487;BME280;10510;47.942;9.442;2023-04-07T04:17:58;94359.97;;;3.95;100.00
11487;BME280;10510;47.942;9.442;2023-04-07T04:19:58;94356.56;;;3.95;100.00
11487;BME280;10510;47.942;9.442;2023-04-07T04:21:58;94354.94;;;3.94;100.00
11487;BME280;10510;47.942;9.442;2023-04-07T04:23:58;94351.41;;;3.95;100.00
11487;BME280;10510;47.942;9.442;2023-04-07T04:25:59;94348.81;;;3.95;100.00
11487;BME280;10510;47.942;9.442;2023-04-07T04:28:02;94348.00;;;3.94;100.00
11487;BME280;10510;47.942;9.442;2023-04-07T04:30:03;94348.16;;;3.93;100.00
11487;BME280;10510;47.942;9.442;2023-04-07T04:32:03;94347.47;;;3.91;100.00
11487;BME280;10510;47.942;9.442;2023-04-07T04:34:04;94343.41;;;3.88;100.00
11487;BME280;10510;47.942;9.442;2023-04-07T04:36:04;94340.19;;;3.86;100.00
11487;BME280;10510;47.942;9.442;2023-04-07T04:38:05;94340.19;;;3.86;100.00
11487;BME280;10510;47.942;9.442;2023-04-07T04:40:05;94347.94;;;3.86;100.00
11487;BME280;10510;47.942;9.442;2023-04-07T04:42:07;94341.97;;;3.85;100.00
11487;BME280;10510;47.942;9.442;2023-04-07T04:44:07;94347.13;;;3.85;100.00
11487;BME280;10510;47.942;9.442;2023-04-07T04:46:08;94347.94;;;3.86;100.00
11487;BME280;10510;47.942;9.442;2023-04-07T04:48:08;94349.72;;;3.85;100.00
11487;BME280;10510;47.942;9.442;2023-04-07T04:50:10;94345.34;;;3.86;100.00
11487;BME280;10510;47.942;9.442;2023-04-07T04:52:10;94352.13;;;3.87;100.00
11487;BME280;10510;47.942;9.442;2023-04-07T04:54:10;94354.72;;;3.87;100.00
11487;BME280;10510;47.942;9.442;2023-04-07T04:56:10;94360.06;;;3.85;100.00
11487;BME280;10510;47.942;9.442;2023-04-07T04:58:11;94355.69;;;3.86;100.00
11487;BME280;10510;47.942;9.442;2023-04-07T05:00:12;94349.56;;;3.87;100.00
11487;BME280;10510;47.942;9.442;2023-04-07T05:02:12;94355.84;;;3.84;100.00
11487;BME280;10510;47.942;9.442;2023-04-07T05:04:12;94356.13;;;3.81;100.00
11487;BME280;10510;47.942;9.442;2023-04-07T05:06:13;94350.16;;;3.81;100.00
11487;BME280;10510;47.942;9.442;2023-04-07T05:08:13;94350.16;;;3.81;100.00
11487;BME280;10510;47.942;9.442;2023-04-07T05:10:13;94349.34;;;3.80;100.00
11487;BME280;10510;47.942;9.442;2023-04-07T05:12:14;94355.31;;;3.81;100.00
11487;BME280;10510;47.942;9.442;2023-04-07T05:14:14;94353.41;;;3.83;100.00
11487;BME280;10510;47.942;9.442;2023-04-07T05:16:15;94349.84;;;3.84;100.00
11487;BME280;10510;47.942;9.442;2023-04-07T05:18:15;94350.53;;;3.86;100.00
11487;BME280;10510;47.942;9.442;2023-04-07T05:20:15;94355.03;;;3.84;100.00
11487;BME280;10510;47.942;9.442;2023-04-07T05:22:16;94349.84;;;3.84;100.00
11487;BME280;10510;47.942;9.442;2023-04-07T05:24:16;94344.69;;;3.84;100.00
11487;BME280;10510;47.942;9.442;2023-04-07T05:26:17;94344.53;;;3.85;100.00
11487;BME280;10510;47.942;9.442;2023-04-07T05:28:17;94337.59;;;3.86;100.00
11487;BME280;10510;47.942;9.442;2023-04-07T05:30:17;94340.81;;;3.88;100.00
11487;BME280;10510;47.942;9.442;2023-04-07T05:32:18;94345.06;;;3.89;100.00
11487;BME280;10510;47.942;9.442;2023-04-07T05:34:18;94342.97;;;3.93;100.00
11487;BME280;10510;47.942;9.442;2023-04-07T05:36:18;94342.84;;;3.94;100.00
11487;BME280;10510;47.942;9.442;2023-04-07T05:38:18;94340.75;;;3.98;100.00
11487;BME280;10510;47.942;9.442;2023-04-07T05:40:19;94344.81;;;4.00;100.00
11487;BME280;10510;47.942;9.442;2023-04-07T05:42:19;94345.31;;;4.04;100.00
11487;BME280;10510;47.942;9.442;2023-04-07T05:44:20;94349.41;;;4.06;100.00
11487;BME280;10510;47.942;9.442;2023-04-07T05:46:20;94346.63;;;4.08;100.00
11487;BME280;10510;47.942;9.442;2023-04-07T05:48:20;94347.16;;;4.12;100.00
11487;BME280;10510;47.942;9.442;2023-04-07T05:50:20;94347.69;;;4.15;100.00
11487;BME280;10510;47.942;9.442;2023-04-07T05:52:21;94347.38;;;4.18;100.00
11487;BME280;10510;47.942;9.442;2023-04-07T05:54:21;94356.44;;;4.22;100.00
11487;BME280;10510;47.942;9.442;2023-04-07T05:56:21;94356.94;;;4.26;100.00
11487;BME280;10510;47.942;9.442;2023-04-07T05:58:22;94354.72;;;4.31;100.00
11487;BME280;10510;47.942;9.442;2023-04-07T06:00:22;94356.03;;;4.35;100.00
11487;BME280;10510;47.942;9.442;2023-04-07T06:02:22;94353.97;;;4.39;100.00
11487;BME280;10510;47.942;9.442;2023-04-07T06:04:23;94350.91;;;4.43;100.00
11487;BME280;10510;47.942;9.442;2023-04-07T06:06:23;94347.88;;;4.48;100.00
11487;BME280;10510;47.942;9.442;2023-04-07T06:08:24;94355.19;;;4.52;100.00
11487;BME280;10510;47.942;9.442;2023-04-07T06:10:24;94352.94;;;4.58;100.00
11487;BME280;10510;47.942;9.442;2023-04-07T06:12:24;94345.53;;;4.63;100.00
11487;BME280;10510;47.942;9.442;2023-04-07T06:14:25;94348.97;;;4.71;100.00
11487;BME280;10510;47.942;9.442;2023-04-07T06:16:25;94351.09;;;4.76;100.00
11487;BME280;10510;47.942;9.442;2023-04-07T06:18:25;94346.13;;;4.83;100.00
11487;BME280;10510;47.942;9.442;2023-04-07T06:20:26;94345.34;;;4.90;100.00
11487;BME280;10510;47.942;9.442;2023-04-07T06:22:26;94334.34;;;4.96;100.00
11487;BME280;10510;47.942;9.442;2023-04-07T06:24:27;94337.97;;;5.04;100.00
11487;BME280;10510;47.942;9.442;2023-04-07T06:26:27;94345.75;;;5.12;100.00
11487;BME280;10510;47.942;9.442;2023-04-07T06:28:28;94341.56;;;5.19;100.00
11487;BME280;10510;47.942;9.442;2023-04-07T06:30:28;94339.94;;;5.26;100.00
11487;BME280;10510;47.942;9.442;2023-04-07T06:32:28;94338.19;;;5.35;100.00
11487;BME280;10510;47.942;9.442;2023-04-07T06:34:28;94324.28;;;5.44;100.00
11487;BME280;10510;47.942;9.442;2023-04-07T06:36:29;94320.91;;;5.52;100.00
11487;BME280;10510;47.942;9.442;2023-04-07T06:38:29;94329.50;;;5.60;100.00
11487;BME280;10510;47.942;9.442;2023-04-07T06:40:30;94324.16;;;5.70;100.00
11487;BME280;10510;47.942;9.442;2023-04-07T06:42:31;94324.66;;;5.82;100.00
11487;BME280;10510;47.942;9.442;2023-04-07T06:44:31;94328.44;;;5.96;100.00
11487;BME280;10510;47.942;9.442;2023-04-07T06:46:31;94334.09;;;6.07;100.00
11487;BME280;10510;47.942;9.442;2023-04-07T06:48:32;94341.38;;;6.20;100.00
11487;BME280;10510;47.942;9.442;2023-04-07T06:50:32;94337.66;;;6.31;100.00
11487;BME280;10510;47.942;9.442;2023-04-07T06:52:32;94340.06;;;6.41;100.00
11487;BME280;10510;47.942;9.442;2023-04-07T06:54:32;94343.31;;;6.51;100.00
11487;BME280;10510;47.942;9.442;2023-04-07T06:56:33;94332.72;;;6.60;100.00
11487;BME280;10510;47.942;9.442;2023-04-07T06:58:33;94335.63;;;6.74;100.00
11487;BME280;10510;47.942;9.442;2023-04-07T07:00:35;94336.53;;;6.89;100.00
11487;BME280;10510;47.942;9.442;2023-04-07T07:02:36;94341.84;;;7.04;100.00
11487;BME280;10510;47.942;9.442;2023-04-07T07:04:36;94346.53;;;7.09;100.00
11487;BME280;10510;47.942;9.442;2023-04-07T07:06:36;94346.84;;;7.14;100.00
11487;BME280;10510;47.942;9.442;2023-04-07T07:08:37;94339.69;;;7.16;100.00
11487;BME280;10510;47.942;9.442;2023-04-07T07:10:37;94345.66;;;7.24;100.00
11487;BME280;10510;47.942;9.442;2023-04-07T07:12:37;94345.78;;;7.31;100.00
11487;BME280;10510;47.942;9.442;2023-04-07T07:14:38;94343.31;;;7.38;100.00
11487;BME280;10510;47.942;9.442;2023-04-07T07:16:38;94348.13;;;7.49;100.00
11487;BME280;10510;47.942;9.442;2023-04-07T07:18:38;94343.81;;;7.64;100.00
11487;BME280;10510;47.942;9.442;2023-04-07T07:20:39;94343.88;;;7.79;100.00
11487;BME280;10510;47.942;9.442;2023-04-07T07:22:39;94343.31;;;7.92;100.00
11487;BME280;10510;47.942;9.442;2023-04-07T07:24:40;94345.50;;;8.03;100.00
11487;BME280;10510;47.942;9.442;2023-04-07T07:26:40;94339.25;;;8.12;100.00
11487;BME280;10510;47.942;9.442;2023-04-07T07:28:40;94339.88;;;8.14;100.00
11487;BME280;10510;47.942;9.442;2023-04-07T07:30:41;94327.25;;;8.26;100.00
11487;BME280;10510;47.942;9.442;2023-04-07T07:32:41;94329.28;;;8.39;100.00
11487;BME280;10510;47.942;9.442;2023-04-07T07:34:41;94328.88;;;8.50;100.00
11487;BME280;10510;47.942;9.442;2023-04-07T07:36:41;94338.56;;;8.56;100.00
11487;BME280;10510;47.942;9.442;2023-04-07T07:38:42;94329.84;;;8.64;100.00
11487;BME280;10510;47.942;9.442;2023-04-07T07:40:42;94328.25;;;8.78;100.00
11487;BME280;10510;47.942;9.442;2023-04-07T07:42:42;94326.00;;;8.90;100.00
11487;BME280;10510;47.942;9.442;2023-04-07T07:44:43;94332.81;;;9.05;100.00
11487;BME280;10510;47.942;9.442;2023-04-07T07:46:43;94328.22;;;9.22;100.00
11487;BME280;10510;47.942;9.442;2023-04-07T07:48:43;94329.56;;;9.33;100.00
11487;BME280;10510;47.942;9.442;2023-04-07T07:50:45;94326.59;;;9.36;100.00
11487;BME280;10510;47.942;9.442;2023-04-07T07:52:46;94326.72;;;9.49;100.00
11487;BME280;10510;47.942;9.442;2023-04-07T07:54:47;94324.97;;;9.71;100.00
11487;BME280;10510;47.942;9.442;2023-04-07T07:56:47;94332.91;;;9.85;100.00
11487;BME280;10510;47.942;9.442;2023-04-07T07:58:48;94333.59;;;9.93;100.00
11487;BME280;10510;47.942;9.442;2023-04-07T08:00:48;94336.50;;;10.05;100.00
11487;BME280;10510;47.942;9.442;2023-04-07T08:02:48;94343.16;;;10.08;100.00
11487;BME280;10510;47.942;9.442;2023-04-07T08:04:49;94348.69;;;10.19;100.00
11487;BME280;10510;47.942;9.442;2023-04-07T08:06:50;94339.06;;;10.20;100.00
11487;BME280;10510;47.942;9.442;2023-04-07T08:08:50;94341.91;;;10.25;100.00
11487;BME280;10510;47.942;9.442;2023-04-07T08:10:51;94338.22;;;10.34;100.00
11487;BME280;10510;47.942;9.442;2023-04-07T08:12:51;94333.75;;;10.28;100.00
11487;BME280;10510;47.942;9.442;2023-04-07T08:14:51;94342.63;;;10.34;100.00
11487;BME280;10510;47.942;9.442;2023-04-07T08:16:51;94343.28;;;10.42;100.00
11487;BME280;10510;47.942;9.442;2023-04-07T08:18:52;94345.06;;;10.91;100.00
11487;BME280;10510;47.942;9.442;2023-04-07T08:20:52;94336.88;;;11.49;100.00
11487;BME280;10510;47.942;9.442;2023-04-07T08:22:52;94331.38;;;11.92;100.00
11487;BME280;10510;47.942;9.442;2023-04-07T08:24:53;94330.44;;;12.33;100.00
11487;BME280;10510;47.942;9.442;2023-04-07T08:26:53;94325.94;;;12.87;100.00
11487;BME280;10510;47.942;9.442;2023-04-07T08:28:53;94330.66;;;13.43;100.00
11487;BME280;10510;47.942;9.442;2023-04-07T08:30:55;94328.44;;;13.40;100.00
11487;BME280;10510;47.942;9.442;2023-04-07T08:32:55;94337.56;;;13.17;100.00
11487;BME280;10510;47.942;9.442;2023-04-07T08:34:55;94332.47;;;13.43;100.00
11487;BME280;10510;47.942;9.442;2023-04-07T08:36:56;94325.22;;;13.83;100.00
11487;BME280;10510;47.942;9.442;2023-04-07T08:38:56;94331.16;;;13.72;100.00
11487;BME280;10510;47.942;9.442;2023-04-07T08:41:02;94338.13;;;13.46;100.00
11487;BME280;10510;47.942;9.442;2023-04-07T08:43:08;94339.59;;;13.22;100.00
11487;BME280;10510;47.942;9.442;2023-04-07T08:45:09;94337.81;;;13.09;100.00
11487;BME280;10510;47.942;9.442;2023-04-07T08:47:10;94343.06;;;13.03;100.00
11487;BME280;10510;47.942;9.442;2023-04-07T08:49:11;94338.25;;;12.86;100.00
11487;BME280;10510;47.942;9.442;2023-04-07T08:51:13;94336.63;;;12.79;100.00
11487;BME280;10510;47.942;9.442;2023-04-07T08:53:22;94327.19;;;12.51;100.00
11487;BME280;10510;47.942;9.442;2023-04-07T08:55:23;94348.16;;;12.31;100.00
11487;BME280;10510;47.942;9.442;2023-04-07T08:57:25;94340.88;;;12.07;100.00
11487;BME280;10510;47.942;9.442;2023-04-07T08:59:25;94336.44;;;12.07;100.00
11487;BME280;10510;47.942;9.442;2023-04-07T09:01:28;94342.31;;;12.16;100.00
11487;BME280;10510;47.942;9.442;2023-04-07T09:03:29;94341.28;;;12.23;100.00
11487;BME280;10510;47.942;9.442;2023-04-07T09:05:31;94330.41;;;12.20;100.00
11487;BME280;10510;47.942;9.442;2023-04-07T09:07:36;94334.66;;;12.61;100.00
11487;BME280;10510;47.942;9.442;2023-04-07T09:09:37;94340.88;;;12.86;100.00
11487;BME280;10510;47.942;9.442;2023-04-07T09:11:38;94341.03;;;13.05;100.00
11487;BME280;10510;47.942;9.442;2023-04-07T09:13:39;94339.41;;;13.24;100.00
11487;BME280;10510;47.942;9.442;2023-04-07T09:15:39;94340.81;;;13.33;100.00
11487;BME280;10510;47.942;9.442;2023-04-07T09:17:40;94339.38;;;13.17;100.00
11487;BME280;10510;47.942;9.442;2023-04-07T09:19:40;94337.22;;;13.01;100.00
11487;BME280;10510;47.942;9.442;2023-04-07T09:21:48;94333.41;;;12.83;100.00
11487;BME280;10510;47.942;9.442;2023-04-07T09:23:49;94336.63;;;12.79;100.00
11487;BME280;10510;47.942;9.442;2023-04-07T09:25:49;94328.41;;;12.68;100.00
11487;BME280;10510;47.942;9.442;2023-04-07T09:27:54;94328.97;;;12.70;100.00
11487;BME280;10510;47.942;9.442;2023-04-07T09:30:09;94331.03;;;12.68;100.00
11487;BME280;10510;47.942;9.442;2023-04-07T09:32:10;94330.22;;;12.68;100.00
11487;BME280;10510;47.942;9.442;2023-04-07T09:34:26;94336.03;;;12.90;100.00
11487;BME280;10510;47.942;9.442;2023-04-07T09:36:28;94337.00;;;13.15;100.00
11487;BME280;10510;47.942;9.442;2023-04-07T09:38:41;94332.31;;;13.24;100.00
11487;BME280;10510;47.942;9.442;2023-04-07T09:40:42;94328.50;;;13.27;100.00
11487;BME280;10510;47.942;9.442;2023-04-07T09:42:46;94320.59;;;13.20;100.00
11487;BME280;10510;47.942;9.442;2023-04-07T09:44:47;94319.41;;;13.36;100.00
11487;BME280;10510;47.942;9.442;2023-04-07T09:46:52;94327.53;;;13.66;100.00
11487;BME280;10510;47.942;9.442;2023-04-07T09:49:01;94319.63;;;13.73;100.00
11487;BME280;10510;47.942;9.442;2023-04-07T09:51:13;94325.53;;;13.61;100.00
11487;BME280;10510;47.942;9.442;2023-04-07T09:53:14;94326.09;;;13.77;100.00
11487;BME280;10510;47.942;9.442;2023-04-07T09:55:16;94326.34;;;14.00;100.00
11487;BME280;10510;47.942;9.442;2023-04-07T09:57:17;94334.66;;;13.97;100.00
11487;BME280;10510;47.942;9.442;2023-04-07T09:59:19;94324.34;;;13.96;100.00
11487;BME280;10510;47.942;9.442;2023-04-07T10:01:20;94331.19;;;14.03;100.00
11487;BME280;10510;47.942;9.442;2023-04-07T10:03:21;94312.38;;;14.06;100.00
11487;BME280;10510;47.942;9.442;2023-04-07T10:05:21;94323.72;;;14.00;100.00
11487;BME280;10510;47.942;9.442;2023-04-07T10:07:21;94322.84;;;13.75;100.00
11487;BME280;10510;47.942;9.442;2023-04-07T10:09:23;94321.91;;;13.62;100.00
11487;BME280;10510;47.942;9.442;2023-04-07T10:11:24;94320.72;;;13.52;100.00
11487;BME280;10510;47.942;9.442;2023-04-07T10:13:25;94316.56;;;13.31;100.00
11487;BME280;10510;47.942;9.442;2023-04-07T10:15:25;94312.13;;;13.25;100.00
11487;BME280;10510;47.942;9.442;2023-04-07T10:17:27;94316.56;;;13.17;100.00
11487;BME280;10510;47.942;9.442;2023-04-07T10:19:31;94323.47;;;13.12;100.00
11487;BME280;10510;47.942;9.442;2023-04-07T10:21:37;94324.09;;;13.01;100.00
11487;BME280;10510;47.942;9.442;2023-04-07T10:23:58;94324.75;;;12.76;100.00
11487;BME280;10510;47.942;9.442;2023-04-07T10:26:05;94329.19;;;12.69;100.00
11487;BME280;10510;47.942;9.442;2023-04-07T10:28:08;94325.97;;;12.60;100.00
11487;BME280;10510;47.942;9.442;2023-04-07T10:30:13;94327.00;;;12.46;100.00
11487;BME280;10510;47.942;9.442;2023-04-07T10:32:14;94319.56;;;12.30;100.00
11487;BME280;10510;47.942;9.442;2023-04-07T10:34:15;94330.59;;;12.12;100.00
11487;BME280;10510;47.942;9.442;2023-04-07T10:36:19;94332.19;;;11.99;100.00
11487;BME280;10510;47.942;9.442;2023-04-07T10:38:20;94325.28;;;11.78;100.00
11487;BME280;10510;47.942;9.442;2023-04-07T10:49:07;94333.03;;;11.45;100.00
11487;BME280;10510;47.942;9.442;2023-04-07T10:51:12;94338.19;;;11.32;100.00
11487;BME280;10510;47.942;9.442;2023-04-07T10:53:14;94332.31;;;11.23;100.00
11487;BME280;10510;47.942;9.442;2023-04-07T10:57:31;94338.78;;;11.27;100.00